Time;durP1;ratioP1;P1;durP2;ratioP2;P2;SDS_P1;SDS_P2;PMS_P1;PMS_P2;Temp;Humidity;BMP_temperature;BMP_pressure;BME280_temperature;BME280_humidity;BME280_pressure;Samples;Min_cycle;Max_cycle;Signal;HPM_P1;HPM_P2
2022/03/26 00:02:24;;;;;;;31.33;16.63;;;;;;;;;;5007502;28;97868;-73
2022/03/26 00:04:50;;;;;;;28.25;16.08;;;;;;;;;;5007191;28;99570;-73
2022/03/26 00:07:17;;;;;;;27.75;15.15;;;;;;;;;;5005966;28;100261;-73
2022/03/26 00:09:44;;;;;;;28.98;15.90;;;;;;;;;;5010494;27;99366;-73
2022/03/26 00:12:10;;;;;;;24.15;15.65;;;;;;;;;;5006457;28;99195;-73
2022/03/26 00:14:36;;;;;;;34.78;15.35;;;;;;;;;;5006501;28;98547;-73
2022/03/26 00:17:03;;;;;;;32.90;16.52;;;;;;;;;;5008071;28;99633;-73
2022/03/26 00:19:30;;;;;;;25.15;15.80;;;;;;;;;;5005818;28;100317;-73
2022/03/26 00:21:56;;;;;;;33.05;17.17;;;;;;;;;;5007689;28;98753;-73
2022/03/26 00:24:22;;;;;;;30.23;15.90;;;;;;;;;;5005508;28;99102;-73
2022/03/26 00:26:49;;;;;;;37.08;16.67;;;;;;;;;;5007359;28;99470;-73
2022/03/26 00:29:15;;;;;;;41.17;16.45;;;;;;;;;;5006502;28;98653;-73
2022/03/26 00:31:42;;;;;;;27.95;17.42;;;;;;;;;;5009458;28;99019;-73
2022/03/26 00:34:09;;;;;;;35.83;16.48;;;;;;;;;;5007357;28;99259;-73
2022/03/26 00:36:35;;;;;;;47.45;17.38;;;;;;;;;;5007249;28;100212;-73
2022/03/26 00:39:03;;;;;;;31.02;16.92;;;;;;;;;;5005653;28;99459;-73
2022/03/26 00:41:29;;;;;;;36.97;18.35;;;;;;;;;;5006481;28;101063;-73
2022/03/26 00:43:56;;;;;;;33.38;19.02;;;;;;;;;;5008220;28;98998;-73
2022/03/26 00:46:22;;;;;;;30.10;19.05;;;;;;;;;;5005259;28;100225;-73
2022/03/26 00:48:49;;;;;;;35.90;18.50;;;;;;;;;;5008003;28;98590;-73
2022/03/26 00:51:16;;;;;;;26.05;18.50;;;;;;;;;;5007277;28;99167;-72
2022/03/26 00:53:42;;;;;;;33.83;18.52;;;;;;;;;;5009783;28;100228;-73
2022/03/26 00:56:09;;;;;;;37.33;18.40;;;;;;;;;;5006011;28;100866;-73
2022/03/26 00:58:35;;;;;;;36.58;19.15;;;;;;;;;;5006894;28;101007;-73
2022/03/26 01:01:02;;;;;;;37.58;20.08;;;;;;;;;;5005847;28;98630;-73
2022/03/26 01:03:28;;;;;;;33.10;20.33;;;;;;;;;;5005081;28;100046;-73
2022/03/26 01:05:55;;;;;;;34.95;20.88;;;;;;;;;;5007302;28;99472;-73
2022/03/26 01:08:22;;;;;;;34.95;19.70;;;;;;;;;;5005288;28;98644;-72
2022/03/26 01:10:48;;;;;;;35.85;22.23;;;;;;;;;;5006297;28;100136;-73
2022/03/26 01:13:16;;;;;;;42.45;20.10;;;;;;;;;;5007599;28;99397;-73
2022/03/26 01:15:42;;;;;;;43.25;21.48;;;;;;;;;;5012823;28;98673;-73
2022/03/26 01:18:09;;;;;;;42.50;21.35;;;;;;;;;;5010730;28;99458;-73
2022/03/26 01:20:36;;;;;;;39.45;20.58;;;;;;;;;;5009207;28;99022;-73
2022/03/26 01:23:02;;;;;;;48.15;24.23;;;;;;;;;;5010277;28;100170;-73
2022/03/26 01:25:29;;;;;;;46.05;23.27;;;;;;;;;;5009602;28;99501;-73
2022/03/26 01:27:55;;;;;;;42.58;23.75;;;;;;;;;;5008787;28;100350;-73
2022/03/26 01:30:22;;;;;;;43.15;22.77;;;;;;;;;;5010389;28;99722;-73
2022/03/26 01:32:49;;;;;;;43.83;22.70;;;;;;;;;;5009443;28;100225;-72
2022/03/26 01:35:15;;;;;;;46.55;24.83;;;;;;;;;;5008961;28;99083;-72
2022/03/26 01:37:42;;;;;;;48.88;23.48;;;;;;;;;;5013127;28;98979;-72
2022/03/26 01:40:08;;;;;;;46.00;24.20;;;;;;;;;;5010166;28;97820;-73
2022/03/26 01:42:35;;;;;;;41.97;24.92;;;;;;;;;;5008893;28;99795;-72
2022/03/26 01:45:01;;;;;;;46.90;24.00;;;;;;;;;;5009432;28;99508;-72
2022/03/26 01:47:28;;;;;;;44.83;23.92;;;;;;;;;;5008899;28;99740;-72
2022/03/26 01:49:54;;;;;;;47.47;24.83;;;;;;;;;;5008704;28;101502;-72
2022/03/26 01:52:21;;;;;;;50.78;25.50;;;;;;;;;;5009915;28;99470;-72
2022/03/26 01:54:47;;;;;;;47.85;25.52;;;;;;;;;;5009800;28;98503;-73
2022/03/26 01:57:14;;;;;;;49.75;25.95;;;;;;;;;;5009177;28;100210;-72
2022/03/26 01:59:41;;;;;;;48.22;26.70;;;;;;;;;;5011436;28;100482;-73
2022/03/26 02:02:09;;;;;;;57.60;26.42;;;;;;;;;;5009385;28;100205;-72
2022/03/26 02:04:36;;;;;;;47.20;26.52;;;;;;;;;;5009445;28;99469;-72
2022/03/26 02:07:04;;;;;;;48.33;26.20;;;;;;;;;;5009109;28;98754;-73
2022/03/26 02:09:35;;;;;;;49.45;25.45;;;;;;;;;;5008765;28;100570;-72
2022/03/26 02:12:03;;;;;;;51.85;27.08;;;;;;;;;;5007612;28;100983;-73
2022/03/26 02:14:29;;;;;;;49.50;25.15;;;;;;;;;;5008301;28;98559;-72
2022/03/26 02:16:56;;;;;;;46.20;25.67;;;;;;;;;;5007874;28;99137;-73
2022/03/26 02:19:22;;;;;;;54.40;28.23;;;;;;;;;;5012384;28;100055;-72
2022/03/26 02:21:49;;;;;;;47.45;26.67;;;;;;;;;;5009117;28;100354;-72
2022/03/26 02:24:16;;;;;;;60.05;29.20;;;;;;;;;;5007922;28;100335;-72
2022/03/26 02:26:42;;;;;;;61.92;28.08;;;;;;;;;;5009223;28;98577;-72
2022/03/26 02:29:10;;;;;;;49.80;28.00;;;;;;;;;;5009876;28;98919;-73
2022/03/26 02:31:37;;;;;;;49.22;27.00;;;;;;;;;;5005839;28;100266;-73
2022/03/26 02:34:05;;;;;;;50.47;27.65;;;;;;;;;;5008817;28;98985;-72
2022/03/26 02:36:32;;;;;;;46.58;27.90;;;;;;;;;;5009056;28;99526;-72
2022/03/26 02:38:58;;;;;;;55.42;27.10;;;;;;;;;;5007800;28;100178;-72
2022/03/26 02:41:25;;;;;;;43.63;26.50;;;;;;;;;;5012850;28;99369;-72
2022/03/26 02:43:51;;;;;;;55.17;29.13;;;;;;;;;;5008554;28;100488;-72
2022/03/26 02:46:18;;;;;;;56.22;28.02;;;;;;;;;;5007385;28;98662;-72
2022/03/26 02:48:44;;;;;;;49.42;27.67;;;;;;;;;;5008438;28;99943;-72
2022/03/26 02:51:11;;;;;;;55.70;28.98;;;;;;;;;;5008441;28;99446;-73
2022/03/26 02:53:37;;;;;;;49.13;27.52;;;;;;;;;;5007892;28;97902;-73
2022/03/26 02:56:04;;;;;;;50.80;29.17;;;;;;;;;;5009518;28;99382;-73
2022/03/26 02:58:30;;;;;;;61.95;28.55;;;;;;;;;;5007977;28;100304;-72
2022/03/26 03:00:57;;;;;;;53.05;28.50;;;;;;;;;;5007501;28;99307;-72
2022/03/26 03:03:24;;;;;;;46.15;28.25;;;;;;;;;;5009729;28;100843;-72
2022/03/26 03:05:50;;;;;;;47.80;28.88;;;;;;;;;;5009593;28;99098;-72
2022/03/26 03:08:17;;;;;;;46.50;28.30;;;;;;;;;;5007076;28;100257;-72
2022/03/26 03:10:44;;;;;;;42.78;26.45;;;;;;;;;;5008832;28;99540;-73
2022/03/26 03:13:10;;;;;;;48.10;28.65;;;;;;;;;;5006739;28;99781;-72
2022/03/26 03:15:37;;;;;;;59.35;28.30;;;;;;;;;;5008258;28;100068;-72
2022/03/26 03:18:03;;;;;;;54.92;28.45;;;;;;;;;;5008167;28;98538;-72
2022/03/26 03:20:30;;;;;;;52.55;27.10;;;;;;;;;;5006345;28;98656;-72
2022/03/26 03:22:59;;;;;;;48.05;28.45;;;;;;;;;;5008195;28;100224;-72
2022/03/26 03:25:26;;;;;;;50.42;27.77;;;;;;;;;;5011144;28;101354;-72
2022/03/26 03:27:53;;;;;;;58.17;28.48;;;;;;;;;;5006936;28;100746;-72
2022/03/26 03:30:19;;;;;;;51.38;28.23;;;;;;;;;;5007857;28;100063;-72
2022/03/26 03:32:45;;;;;;;50.90;27.88;;;;;;;;;;5008088;28;99240;-73
2022/03/26 03:35:12;;;;;;;45.72;27.85;;;;;;;;;;5005081;28;99145;-72
2022/03/26 03:37:39;;;;;;;48.88;27.38;;;;;;;;;;5008475;28;99435;-72
2022/03/26 03:40:06;;;;;;;48.00;27.05;;;;;;;;;;5008484;28;98571;-72
2022/03/26 03:42:33;;;;;;;50.08;27.25;;;;;;;;;;5006153;28;99441;-72
2022/03/26 03:44:59;;;;;;;57.58;27.20;;;;;;;;;;5008283;28;100405;-72
2022/03/26 03:47:26;;;;;;;50.22;26.80;;;;;;;;;;5011197;28;98579;-72
2022/03/26 03:49:53;;;;;;;45.70;26.83;;;;;;;;;;5006223;28;100013;-72
2022/03/26 03:52:19;;;;;;;46.72;28.05;;;;;;;;;;5006221;28;98592;-72
2022/03/26 03:54:46;;;;;;;48.95;26.90;;;;;;;;;;5007589;28;100129;-72
2022/03/26 03:57:12;;;;;;;48.03;26.85;;;;;;;;;;5006990;28;100290;-72
2022/03/26 03:59:41;;;;;;;51.90;28.80;;;;;;;;;;5007087;28;98559;-72
2022/03/26 04:02:09;;;;;;;46.28;27.23;;;;;;;;;;5008120;28;100021;-72
2022/03/26 04:04:37;;;;;;;56.63;26.95;;;;;;;;;;5006307;28;100286;-72
2022/03/26 04:07:03;;;;;;;48.22;26.65;;;;;;;;;;5007346;28;97945;-72
2022/03/26 04:09:30;;;;;;;44.42;26.85;;;;;;;;;;5008334;28;99645;-72
2022/03/26 04:11:56;;;;;;;51.08;27.88;;;;;;;;;;5008368;28;98917;-72
2022/03/26 04:14:23;;;;;;;44.80;27.35;;;;;;;;;;5006320;28;100060;-72
2022/03/26 04:16:49;;;;;;;53.50;27.92;;;;;;;;;;5006169;28;100239;-73
2022/03/26 04:19:18;;;;;;;51.55;28.02;;;;;;;;;;5007745;28;98566;-74
2022/03/26 04:21:45;;;;;;;59.42;27.52;;;;;;;;;;5006974;28;100547;-74
2022/03/26 04:24:12;;;;;;;44.88;27.17;;;;;;;;;;5004975;28;100140;-73
2022/03/26 04:26:38;;;;;;;44.78;27.52;;;;;;;;;;5008080;28;98971;-73
2022/03/26 04:29:05;;;;;;;46.72;27.42;;;;;;;;;;5010058;28;100570;-71
2022/03/26 04:31:31;;;;;;;48.72;27.27;;;;;;;;;;5007730;28;97932;-72
2022/03/26 04:34:01;;;;;;;44.65;27.15;;;;;;;;;;5006971;28;99204;-72
2022/03/26 04:36:29;;;;;;;49.53;27.88;;;;;;;;;;5007407;28;100261;-72
2022/03/26 04:38:56;;;;;;;56.60;28.00;;;;;;;;;;5004763;28;100718;-72
2022/03/26 04:41:22;;;;;;;50.20;27.80;;;;;;;;;;5006471;28;99955;-72
2022/03/26 04:43:49;;;;;;;45.00;26.90;;;;;;;;;;5006528;28;100199;-72
2022/03/26 04:46:15;;;;;;;48.00;27.65;;;;;;;;;;5007917;28;98935;-72
2022/03/26 04:48:41;;;;;;;46.67;26.65;;;;;;;;;;5009852;28;99071;-72
2022/03/26 04:51:08;;;;;;;41.90;26.70;;;;;;;;;;5012543;27;99909;-72
2022/03/26 04:53:34;;;;;;;47.08;28.23;;;;;;;;;;5009645;28;99973;-72
2022/03/26 04:56:01;;;;;;;52.28;29.15;;;;;;;;;;5009532;28;99572;-72
2022/03/26 04:58:27;;;;;;;54.25;29.92;;;;;;;;;;5009901;28;98619;-72
2022/03/26 05:00:53;;;;;;;49.67;28.85;;;;;;;;;;5010389;28;99385;-72
2022/03/26 05:03:20;;;;;;;49.50;26.85;;;;;;;;;;5009826;28;100889;-72
2022/03/26 05:05:47;;;;;;;42.70;27.40;;;;;;;;;;5009623;28;98640;-72
2022/03/26 05:08:13;;;;;;;51.95;29.33;;;;;;;;;;5010591;28;99258;-72
2022/03/26 05:10:39;;;;;;;44.55;28.27;;;;;;;;;;5008571;28;100110;-72
2022/03/26 05:13:06;;;;;;;43.40;27.50;;;;;;;;;;5012775;28;98913;-73
2022/03/26 05:15:32;;;;;;;44.13;27.50;;;;;;;;;;5009377;28;99127;-73
2022/03/26 05:17:59;;;;;;;50.10;28.25;;;;;;;;;;5009935;28;98632;-73
2022/03/26 05:20:25;;;;;;;55.38;29.48;;;;;;;;;;5010528;28;99123;-72
2022/03/26 05:22:52;;;;;;;58.33;29.98;;;;;;;;;;5009818;28;99318;-73
2022/03/26 05:25:19;;;;;;;51.20;27.65;;;;;;;;;;5010496;28;98604;-72
2022/03/26 05:27:46;;;;;;;57.65;27.25;;;;;;;;;;5007714;28;100108;-73
2022/03/26 05:30:13;;;;;;;52.47;28.30;;;;;;;;;;5008904;28;99475;-73
2022/03/26 05:32:39;;;;;;;51.53;27.98;;;;;;;;;;5010934;28;98531;-73
2022/03/26 05:35:11;;;;;;;50.55;28.55;;;;;;;;;;5011557;28;100204;-72
2022/03/26 05:37:38;;;;;;;47.92;27.17;;;;;;;;;;5010626;28;98571;-73
2022/03/26 05:40:05;;;;;;;43.20;27.33;;;;;;;;;;5009563;28;100523;-73
2022/03/26 05:42:32;;;;;;;49.50;28.35;;;;;;;;;;5007502;28;99236;-73
2022/03/26 05:44:58;;;;;;;43.28;27.77;;;;;;;;;;5009471;28;97846;-73
2022/03/26 05:47:25;;;;;;;55.08;30.23;;;;;;;;;;5009168;28;98707;-73
2022/03/26 05:49:51;;;;;;;57.05;28.60;;;;;;;;;;5008332;28;100269;-73
2022/03/26 05:52:17;;;;;;;48.58;27.83;;;;;;;;;;5008619;28;99251;-73
2022/03/26 05:54:44;;;;;;;47.78;26.58;;;;;;;;;;5010306;28;100801;-72
2022/03/26 05:57:10;;;;;;;50.33;28.60;;;;;;;;;;5010636;28;100226;-73
2022/03/26 05:59:37;;;;;;;46.17;27.58;;;;;;;;;;5007043;28;100171;-73
2022/03/26 06:02:03;;;;;;;49.65;27.95;;;;;;;;;;5007868;28;100152;-72
2022/03/26 06:04:30;;;;;;;47.05;28.77;;;;;;;;;;5009416;28;98569;-72
2022/03/26 06:06:56;;;;;;;50.00;27.63;;;;;;;;;;5009716;28;99247;-72
2022/03/26 06:09:23;;;;;;;53.70;29.35;;;;;;;;;;5003577;28;99539;-72
2022/03/26 06:11:49;;;;;;;50.05;30.10;;;;;;;;;;5003976;28;100503;-72
2022/03/26 06:14:17;;;;;;;42.40;27.70;;;;;;;;;;5003339;28;100141;-73
2022/03/26 06:16:45;;;;;;;52.45;28.45;;;;;;;;;;5004228;28;101278;-72
2022/03/26 06:19:12;;;;;;;49.88;30.77;;;;;;;;;;5011512;28;99459;-72
2022/03/26 06:21:39;;;;;;;53.10;29.45;;;;;;;;;;5009538;28;100461;-71
2022/03/26 06:24:05;;;;;;;49.72;30.00;;;;;;;;;;5009085;28;98602;-71
2022/03/26 06:26:32;;;;;;;48.90;28.95;;;;;;;;;;5009553;28;98811;-71
2022/03/26 06:28:58;;;;;;;60.60;28.88;;;;;;;;;;5009487;28;100166;-72
2022/03/26 06:31:25;;;;;;;53.00;28.42;;;;;;;;;;5008605;28;98639;-72
2022/03/26 06:33:51;;;;;;;57.20;31.20;;;;;;;;;;5010267;28;100465;-71
2022/03/26 06:36:18;;;;;;;52.58;30.48;;;;;;;;;;5008991;28;100285;-75
2022/03/26 06:38:44;;;;;;;49.85;30.38;;;;;;;;;;5012072;28;98594;-71
2022/03/26 06:41:11;;;;;;;55.88;31.33;;;;;;;;;;5008494;28;100923;-71
2022/03/26 06:43:38;;;;;;;52.22;30.75;;;;;;;;;;5009202;28;98898;-72
2022/03/26 06:46:05;;;;;;;54.17;30.85;;;;;;;;;;5008735;28;100104;-72
2022/03/26 06:48:32;;;;;;;59.38;32.20;;;;;;;;;;5008743;28;100314;-71
2022/03/26 06:51:00;;;;;;;61.22;32.17;;;;;;;;;;5009007;28;98535;-71
2022/03/26 06:53:30;;;;;;;66.57;32.60;;;;;;;;;;5008331;28;99988;-72
2022/03/26 06:55:57;;;;;;;55.78;31.80;;;;;;;;;;5007909;28;99866;-72
2022/03/26 06:58:23;;;;;;;60.58;33.75;;;;;;;;;;5002329;28;98267;-72
2022/03/26 07:00:50;;;;;;;68.32;33.88;;;;;;;;;;4993020;28;98660;-72
2022/03/26 07:03:17;;;;;;;62.97;34.03;;;;;;;;;;4994875;28;98582;-72
2022/03/26 07:05:44;;;;;;;65.80;34.13;;;;;;;;;;5008218;28;99259;-72
2022/03/26 07:08:10;;;;;;;65.47;35.83;;;;;;;;;;5008258;28;100533;-72
2022/03/26 07:10:37;;;;;;;58.90;33.38;;;;;;;;;;5009474;28;98897;-72
2022/03/26 07:13:03;;;;;;;61.05;35.70;;;;;;;;;;5007403;28;100086;-72
2022/03/26 07:15:31;;;;;;;62.45;35.83;;;;;;;;;;5008635;28;99372;-72
2022/03/26 07:17:58;;;;;;;72.30;37.47;;;;;;;;;;5009062;28;98528;-73
2022/03/26 07:20:24;;;;;;;61.78;36.88;;;;;;;;;;5007942;28;100062;-72
2022/03/26 07:22:51;;;;;;;65.85;38.08;;;;;;;;;;5012591;28;98809;-72
2022/03/26 07:25:17;;;;;;;73.88;37.30;;;;;;;;;;5008450;28;99797;-72
2022/03/26 07:27:43;;;;;;;59.10;37.55;;;;;;;;;;5007605;28;100504;-72
2022/03/26 07:30:10;;;;;;;71.65;38.13;;;;;;;;;;5008280;28;99341;-72
2022/03/26 07:32:36;;;;;;;69.25;37.53;;;;;;;;;;5008688;28;100836;-72
2022/03/26 07:35:03;;;;;;;51.67;30.80;;;;;;;;;;5007565;28;99663;-74
2022/03/26 07:37:30;;;;;;;53.28;30.63;;;;;;;;;;5008710;28;98518;-75
2022/03/26 07:39:56;;;;;;;70.57;38.47;;;;;;;;;;5008445;28;99400;-73
2022/03/26 07:42:22;;;;;;;67.85;38.13;;;;;;;;;;5006953;28;98950;-73
2022/03/26 07:44:50;;;;;;;66.22;36.60;;;;;;;;;;5009630;28;98607;-72
2022/03/26 07:47:16;;;;;;;64.43;37.33;;;;;;;;;;5008543;28;98592;-73
2022/03/26 07:49:43;;;;;;;77.60;39.90;;;;;;;;;;5007565;28;98639;-73
2022/03/26 07:52:09;;;;;;;65.25;39.25;;;;;;;;;;5008101;28;100264;-73
2022/03/26 07:54:35;;;;;;;73.82;38.85;;;;;;;;;;5006631;28;100257;-73
2022/03/26 07:57:02;;;;;;;70.47;39.03;;;;;;;;;;5008329;28;98621;-73
2022/03/26 07:59:28;;;;;;;64.72;38.83;;;;;;;;;;5007905;28;99254;-73
2022/03/26 08:01:55;;;;;;;75.55;41.30;;;;;;;;;;5006640;28;99509;-73
2022/03/26 08:04:21;;;;;;;77.30;40.60;;;;;;;;;;5008391;28;98572;-73
2022/03/26 08:06:48;;;;;;;76.53;43.85;;;;;;;;;;5011281;28;99329;-73
2022/03/26 08:09:14;;;;;;;77.32;41.03;;;;;;;;;;5007159;28;98507;-73
2022/03/26 08:11:42;;;;;;;75.93;40.55;;;;;;;;;;5006953;28;99306;-73
2022/03/26 08:14:09;;;;;;;72.18;40.70;;;;;;;;;;5007405;28;99304;-73
2022/03/26 08:16:35;;;;;;;78.38;43.58;;;;;;;;;;5006656;28;98950;-73
2022/03/26 08:19:02;;;;;;;75.82;42.08;;;;;;;;;;5007846;28;99268;-74
2022/03/26 08:21:30;;;;;;;72.10;42.90;;;;;;;;;;5010529;28;100042;-74
2022/03/26 08:23:57;;;;;;;79.10;43.78;;;;;;;;;;5013606;28;98568;-74
2022/03/26 08:26:26;;;;;;;79.97;43.22;;;;;;;;;;5017363;28;100742;-74
2022/03/26 08:28:54;;;;;;;86.35;44.15;;;;;;;;;;5014480;28;98524;-74
2022/03/26 08:31:22;;;;;;;83.10;42.00;;;;;;;;;;5013751;28;99929;-74
2022/03/26 08:33:48;;;;;;;69.00;36.95;;;;;;;;;;5014228;28;100167;-74
2022/03/26 08:36:15;;;;;;;76.63;40.47;;;;;;;;;;5014700;28;97801;-74
2022/03/26 08:38:44;;;;;;;74.05;38.63;;;;;;;;;;5013592;28;99404;-74
2022/03/26 08:41:12;;;;;;;81.22;43.05;;;;;;;;;;5014464;27;99502;-74
2022/03/26 08:43:38;;;;;;;73.38;41.33;;;;;;;;;;5012710;28;99313;-74
2022/03/26 08:46:04;;;;;;;73.00;35.15;;;;;;;;;;5013968;28;100815;-74
2022/03/26 08:48:31;;;;;;;70.90;37.17;;;;;;;;;;5017112;28;100205;-74
2022/03/26 08:50:57;;;;;;;70.85;39.10;;;;;;;;;;5013346;28;100256;-74
2022/03/26 08:53:24;;;;;;;72.22;41.92;;;;;;;;;;5013592;28;100357;-74
2022/03/26 08:55:51;;;;;;;68.18;39.55;;;;;;;;;;5014314;28;98713;-74
2022/03/26 08:58:18;;;;;;;74.07;40.88;;;;;;;;;;5013510;28;99415;-74
2022/03/26 09:00:47;;;;;;;61.70;35.47;;;;;;;;;;5014575;28;99061;-74
2022/03/26 09:03:14;;;;;;;79.57;43.28;;;;;;;;;;5013891;28;98639;-74
2022/03/26 09:05:41;;;;;;;76.55;38.97;;;;;;;;;;5013500;28;100035;-74
2022/03/26 09:08:07;;;;;;;79.90;41.38;;;;;;;;;;5013337;28;100202;-74
2022/03/26 09:10:35;;;;;;;72.90;40.78;;;;;;;;;;5017614;28;98823;-73
2022/03/26 09:13:01;;;;;;;71.85;37.22;;;;;;;;;;5012052;28;99660;-74
2022/03/26 09:15:28;;;;;;;72.70;39.47;;;;;;;;;;5010107;28;98818;-74
2022/03/26 09:17:57;;;;;;;55.30;32.33;;;;;;;;;;5012970;28;100150;-73
2022/03/26 09:20:24;;;;;;;70.07;39.08;;;;;;;;;;5009796;28;98921;-73
2022/03/26 09:22:51;;;;;;;70.95;38.38;;;;;;;;;;5011410;28;98581;-73
2022/03/26 09:25:19;;;;;;;65.85;39.83;;;;;;;;;;5002132;28;99957;-73
2022/03/26 09:27:46;;;;;;;68.10;39.75;;;;;;;;;;5011182;28;99627;-73
2022/03/26 09:30:12;;;;;;;63.05;39.10;;;;;;;;;;5013735;28;98816;-73
2022/03/26 09:32:39;;;;;;;67.45;38.38;;;;;;;;;;5008724;28;101151;-73
2022/03/26 09:35:05;;;;;;;68.47;39.72;;;;;;;;;;5009880;28;98859;-73
2022/03/26 09:37:31;;;;;;;68.63;36.95;;;;;;;;;;5007057;28;98934;-73
2022/03/26 09:39:58;;;;;;;57.75;35.50;;;;;;;;;;5022419;28;100552;-73
2022/03/26 09:42:25;;;;;;;66.70;39.08;;;;;;;;;;5010001;28;98622;-73
2022/03/26 09:44:52;;;;;;;59.20;34.63;;;;;;;;;;5009160;28;100096;-73
2022/03/26 09:47:18;;;;;;;60.70;36.40;;;;;;;;;;4998356;28;100293;-73
2022/03/26 09:49:45;;;;;;;65.38;37.85;;;;;;;;;;5008968;28;97770;-73
2022/03/26 09:52:13;;;;;;;57.13;32.95;;;;;;;;;;5009164;28;99331;-73
2022/03/26 09:54:39;;;;;;;54.35;31.23;;;;;;;;;;5010615;28;99393;-73
2022/03/26 09:57:07;;;;;;;53.08;29.67;;;;;;;;;;5007426;28;100265;-73
2022/03/26 09:59:34;;;;;;;58.30;29.13;;;;;;;;;;5006271;28;99336;-73
2022/03/26 10:02:02;;;;;;;57.03;32.90;;;;;;;;;;5013181;28;98817;-74
2022/03/26 10:04:36;;;;;;;49.25;28.95;;;;;;;;;;5009745;27;99633;-73
2022/03/26 10:07:04;;;;;;;48.33;28.40;;;;;;;;;;5006291;28;100202;-73
2022/03/26 10:09:44;;;;;;;48.17;31.27;;;;;;;;;;5006422;28;100321;-72
2022/03/26 10:12:11;;;;;;;52.72;28.50;;;;;;;;;;5005426;28;99915;-73
2022/03/26 10:14:40;;;;;;;55.00;28.33;;;;;;;;;;5000453;28;98754;-73
2022/03/26 10:17:08;;;;;;;54.80;31.23;;;;;;;;;;5011611;28;98623;-73
2022/03/26 10:19:35;;;;;;;49.80;29.70;;;;;;;;;;5003883;28;100315;-73
2022/03/26 10:22:01;;;;;;;49.08;28.88;;;;;;;;;;4998354;28;101452;-73
2022/03/26 10:24:28;;;;;;;42.53;25.67;;;;;;;;;;5001235;27;100127;-74
2022/03/26 10:26:58;;;;;;;50.58;27.83;;;;;;;;;;5009568;28;100144;-74
2022/03/26 10:29:24;;;;;;;51.65;26.83;;;;;;;;;;5008437;28;98614;-74
2022/03/26 10:34:36;;;;;;;57.80;28.52;;;;;;;;;;5009373;28;99459;-74
2022/03/26 10:37:03;;;;;;;51.80;28.42;;;;;;;;;;5011869;28;98561;-74
2022/03/26 10:39:30;;;;;;;54.90;28.85;;;;;;;;;;5009189;28;98917;-74
2022/03/26 10:41:57;;;;;;;51.85;28.67;;;;;;;;;;5009853;28;98659;-74
2022/03/26 10:44:24;;;;;;;47.08;24.90;;;;;;;;;;5007985;28;99239;-74
2022/03/26 10:46:55;;;;;;;50.70;27.90;;;;;;;;;;5008737;28;101145;-74
2022/03/26 10:49:29;;;;;;;42.65;23.60;;;;;;;;;;5009016;28;98528;-74
2022/03/26 10:51:57;;;;;;;44.47;25.98;;;;;;;;;;5008730;28;100228;-74
2022/03/26 10:54:27;;;;;;;49.20;26.20;;;;;;;;;;5008740;28;100170;-74
2022/03/26 10:56:55;;;;;;;58.38;31.55;;;;;;;;;;5009979;27;99088;-74
2022/03/26 10:59:22;;;;;;;60.05;30.83;;;;;;;;;;5011210;28;99788;-74
2022/03/26 11:01:49;;;;;;;58.65;29.95;;;;;;;;;;5009076;28;98585;-74
2022/03/26 11:04:15;;;;;;;55.72;29.85;;;;;;;;;;5008817;28;99428;-74
2022/03/26 11:06:43;;;;;;;51.55;29.17;;;;;;;;;;4999592;28;100377;-73
2022/03/26 11:09:09;;;;;;;54.63;32.92;;;;;;;;;;5008977;28;99131;-74
2022/03/26 11:11:36;;;;;;;59.15;35.45;;;;;;;;;;5007507;28;99379;-74
2022/03/26 11:14:07;;;;;;;58.80;33.30;;;;;;;;;;5008828;28;100507;-74
2022/03/26 11:16:39;;;;;;;62.90;33.42;;;;;;;;;;5008513;28;98550;-74
2022/03/26 11:19:24;;;;;;;56.97;31.23;;;;;;;;;;5008497;28;99302;-74
2022/03/26 11:22:09;;;;;;;57.53;33.53;;;;;;;;;;5011938;28;100467;-74
2022/03/26 11:24:50;;;;;;;47.75;26.88;;;;;;;;;;5009225;28;98883;-74
2022/03/26 11:27:38;;;;;;;49.28;24.55;;;;;;;;;;5007325;28;99989;-74
2022/03/26 11:30:27;;;;;;;60.05;27.45;;;;;;;;;;5009259;28;97816;-74
2022/03/26 11:32:55;;;;;;;42.78;24.25;;;;;;;;;;5007971;28;99451;-74
2022/03/26 11:35:21;;;;;;;46.58;25.67;;;;;;;;;;5007374;28;100264;-74
2022/03/26 11:37:52;;;;;;;47.42;26.58;;;;;;;;;;5007714;28;99374;-74
2022/03/26 11:40:37;;;;;;;37.63;25.33;;;;;;;;;;5007430;28;101029;-74
2022/03/26 11:43:03;;;;;;;51.30;28.23;;;;;;;;;;5008191;28;99701;-74
2022/03/26 11:51:19;;;;;;;53.72;27.45;;;;;;;;;;5008592;28;98548;-75
2022/03/26 11:53:49;;;;;;;49.40;28.88;;;;;;;;;;5007490;28;99788;-74
2022/03/26 11:56:26;;;;;;;50.75;31.30;;;;;;;;;;5005766;28;100813;-74
2022/03/26 11:59:02;;;;;;;50.38;29.10;;;;;;;;;;5008082;28;98658;-75
2022/03/26 12:01:34;;;;;;;45.42;26.98;;;;;;;;;;5006411;28;100246;-74
2022/03/26 12:04:07;;;;;;;44.75;24.98;;;;;;;;;;5007562;28;100275;-74
2022/03/26 12:07:00;;;;;;;42.53;22.08;;;;;;;;;;5004563;28;99097;-74
2022/03/26 12:09:27;;;;;;;35.83;22.13;;;;;;;;;;5008475;28;99895;-75
2022/03/26 12:12:07;;;;;;;40.42;22.63;;;;;;;;;;5008039;28;98707;-74
2022/03/26 12:14:34;;;;;;;34.13;20.67;;;;;;;;;;5007640;28;100075;-75
2022/03/26 12:17:02;;;;;;;34.55;19.20;;;;;;;;;;5007139;28;100664;-75
2022/03/26 12:19:35;;;;;;;38.03;19.83;;;;;;;;;;5008000;28;98556;-74
2022/03/26 12:22:18;;;;;;;37.20;18.33;;;;;;;;;;5007204;28;99261;-74
2022/03/26 12:24:48;;;;;;;24.02;15.18;;;;;;;;;;5006786;28;100284;-74
2022/03/26 12:27:15;;;;;;;27.02;14.45;;;;;;;;;;5007251;28;98634;-75
2022/03/26 12:29:42;;;;;;;33.58;16.45;;;;;;;;;;5006454;28;100470;-75
2022/03/26 12:32:08;;;;;;;34.13;16.48;;;;;;;;;;5010746;28;99669;-74
2022/03/26 12:34:54;;;;;;;28.55;16.92;;;;;;;;;;5007398;28;99908;-74
2022/03/26 12:37:21;;;;;;;27.52;12.32;;;;;;;;;;5006476;28;100376;-75
2022/03/26 12:39:48;;;;;;;26.90;13.45;;;;;;;;;;5007639;28;98665;-74
2022/03/26 12:42:14;;;;;;;24.83;11.65;;;;;;;;;;5007053;28;100008;-74
2022/03/26 12:44:42;;;;;;;22.92;12.38;;;;;;;;;;5006364;28;100007;-74
2022/03/26 12:47:08;;;;;;;24.00;12.45;;;;;;;;;;5006621;28;98208;-74
2022/03/26 12:49:36;;;;;;;20.33;8.82;;;;;;;;;;5007367;28;99465;-75
2022/03/26 12:52:03;;;;;;;18.90;10.85;;;;;;;;;;5010531;28;100745;-75
2022/03/26 12:54:29;;;;;;;23.90;11.95;;;;;;;;;;5006502;28;100119;-75
2022/03/26 12:56:56;;;;;;;22.67;13.65;;;;;;;;;;5006621;28;99634;-75
2022/03/26 12:59:22;;;;;;;20.65;12.65;;;;;;;;;;5007467;28;99050;-76
2022/03/26 13:01:55;;;;;;;21.20;12.57;;;;;;;;;;5007489;28;100048;-75
2022/03/26 13:04:22;;;;;;;16.58;11.02;;;;;;;;;;5005322;28;100397;-75
2022/03/26 13:06:52;;;;;;;24.10;13.82;;;;;;;;;;5007035;28;98956;-75
2022/03/26 13:09:19;;;;;;;25.63;15.15;;;;;;;;;;5010436;28;99135;-75
2022/03/26 13:11:48;;;;;;;29.88;15.63;;;;;;;;;;5010845;28;98564;-74
2022/03/26 13:14:16;;;;;;;32.72;18.60;;;;;;;;;;5013794;28;98813;-75
2022/03/26 13:16:43;;;;;;;23.20;13.43;;;;;;;;;;5010739;28;99196;-75
2022/03/26 13:19:13;;;;;;;25.00;15.23;;;;;;;;;;5009668;28;99411;-75
2022/03/26 13:21:41;;;;;;;24.23;13.75;;;;;;;;;;5010640;28;100814;-75
2022/03/26 13:24:09;;;;;;;33.53;17.80;;;;;;;;;;5010249;28;100323;-75
2022/03/26 13:26:42;;;;;;;29.17;16.33;;;;;;;;;;5010137;28;99104;-74
2022/03/26 13:29:10;;;;;;;33.53;17.23;;;;;;;;;;5010925;28;100325;-74
2022/03/26 13:31:40;;;;;;;31.35;15.40;;;;;;;;;;5010086;28;100281;-76
2022/03/26 13:34:10;;;;;;;37.72;19.75;;;;;;;;;;5009710;28;98624;-78
2022/03/26 13:36:37;;;;;;;31.48;17.55;;;;;;;;;;5013967;28;100385;-74
2022/03/26 13:39:13;;;;;;;31.45;19.23;;;;;;;;;;5009553;28;99052;-75
2022/03/26 13:41:39;;;;;;;33.53;19.08;;;;;;;;;;5009769;28;100095;-75
2022/03/26 13:44:06;;;;;;;51.42;18.50;;;;;;;;;;5009428;28;101290;-76
2022/03/26 13:46:34;;;;;;;36.28;18.60;;;;;;;;;;5008877;28;98591;-74
2022/03/26 13:49:01;;;;;;;35.22;17.67;;;;;;;;;;5010124;28;99729;-74
2022/03/26 13:51:29;;;;;;;33.50;16.33;;;;;;;;;;5009974;28;99506;-76
2022/03/26 13:53:56;;;;;;;38.85;16.42;;;;;;;;;;5009761;28;99118;-75
2022/03/26 13:56:30;;;;;;;27.73;16.23;;;;;;;;;;5009985;28;100356;-75
2022/03/26 13:58:59;;;;;;;27.08;14.43;;;;;;;;;;5013174;28;100668;-75
2022/03/26 14:01:26;;;;;;;47.67;17.52;;;;;;;;;;5009371;28;100690;-76
2022/03/26 14:03:53;;;;;;;36.40;18.33;;;;;;;;;;5009365;28;100280;-75
2022/03/26 14:06:19;;;;;;;37.10;19.40;;;;;;;;;;5009763;28;98554;-76
2022/03/26 14:08:47;;;;;;;44.33;20.00;;;;;;;;;;5008711;28;99832;-76
2022/03/26 14:11:15;;;;;;;33.60;20.20;;;;;;;;;;5009654;28;99773;-76
2022/03/26 14:13:41;;;;;;;41.08;22.27;;;;;;;;;;5009635;28;98626;-76
2022/03/26 14:16:08;;;;;;;41.53;22.90;;;;;;;;;;5009135;28;99210;-76
2022/03/26 14:18:35;;;;;;;45.92;22.45;;;;;;;;;;5008928;28;100325;-75
2022/03/26 14:21:01;;;;;;;37.10;19.10;;;;;;;;;;5012747;28;98571;-76
2022/03/26 14:23:28;;;;;;;43.20;25.30;;;;;;;;;;5007304;28;100063;-76